createdAt,value
2023-03-08T00:01:35.618Z,47.89
2023-03-08T00:04:04.355Z,47.86
2023-03-08T00:06:35.397Z,48.17
2023-03-08T00:09:04.349Z,47.93
2023-03-08T00:11:34.194Z,47.96
2023-03-08T00:14:03.288Z,48.04
2023-03-08T00:16:32.454Z,48.05
2023-03-08T00:19:00.777Z,47.98
2023-03-08T00:21:30.735Z,47.89
2023-03-08T00:24:00.801Z,47.94
2023-03-08T00:26:29.563Z,47.87
2023-03-08T00:28:58.205Z,48.00
2023-03-08T00:31:29.366Z,48.00
2023-03-08T00:33:59.343Z,48.09
2023-03-08T00:36:28.330Z,48.12
2023-03-08T00:38:57.519Z,47.82
2023-03-08T00:41:27.910Z,48.06
2023-03-08T00:43:56.316Z,48.00
2023-03-08T00:46:26.397Z,48.04
2023-03-08T00:48:55.203Z,47.97
2023-03-08T00:51:23.529Z,47.84
2023-03-08T00:53:52.568Z,47.94
2023-03-08T00:56:20.919Z,48.02
2023-03-08T00:58:51.441Z,47.99
2023-03-08T01:01:20.515Z,48.01
2023-03-08T01:03:51.422Z,47.83
2023-03-08T01:06:20.309Z,47.92
2023-03-08T01:08:48.817Z,47.78
2023-03-08T01:11:19.069Z,47.87
2023-03-08T01:13:49.124Z,47.77
2023-03-08T01:16:21.613Z,47.74
2023-03-08T01:18:51.825Z,47.75
2023-03-08T01:21:22.269Z,47.72
2023-03-08T01:23:50.915Z,47.86
2023-03-08T01:26:22.593Z,47.83
2023-03-08T01:28:52.888Z,47.78
2023-03-08T01:31:26.284Z,47.72
2023-03-08T01:33:56.339Z,47.63
2023-03-08T01:36:28.778Z,47.66
2023-03-08T01:38:57.392Z,47.58
2023-03-08T01:41:29.284Z,47.78
2023-03-08T01:43:58.770Z,47.62
2023-03-08T01:46:31.380Z,47.60
2023-03-08T01:49:16.762Z,47.65
2023-03-08T01:51:51.263Z,47.75
2023-03-08T01:54:24.919Z,47.81
2023-03-08T01:56:56.417Z,47.72
2023-03-08T01:59:27.455Z,47.88
2023-03-08T02:06:10.855Z,47.85
2023-03-08T02:08:39.792Z,48.00
2023-03-08T02:11:10.011Z,48.04
2023-03-08T02:13:40.254Z,48.02
2023-03-08T02:16:13.331Z,48.10
2023-03-08T02:18:57.519Z,48.26
2023-03-08T02:21:28.872Z,48.31
2023-03-08T02:24:04.283Z,48.41
2023-03-08T02:26:33.384Z,48.44
2023-03-08T02:29:02.848Z,48.53
2023-03-08T02:31:31.611Z,48.64
2023-03-08T02:34:00.384Z,48.59
2023-03-08T02:36:28.920Z,48.66
2023-03-08T02:39:00.147Z,48.80
2023-03-08T02:41:30.553Z,49.00
2023-03-08T02:43:59.539Z,48.96
2023-03-08T02:46:31.148Z,49.28
2023-03-08T02:48:59.698Z,49.29
2023-03-08T02:51:29.001Z,49.43
2023-03-08T02:54:01.532Z,49.56
2023-03-08T02:56:31.203Z,49.69
2023-03-08T02:58:59.524Z,49.78
2023-03-08T03:01:29.439Z,50.02
2023-03-08T03:03:57.949Z,50.11
2023-03-08T03:06:27.885Z,50.19
2023-03-08T03:08:58.146Z,50.25
2023-03-08T03:11:29.654Z,50.32
2023-03-08T03:14:00.249Z,50.32
2023-03-08T03:16:35.406Z,50.41
2023-03-08T03:19:03.715Z,50.38
2023-03-08T03:21:32.903Z,50.44
2023-03-08T03:24:02.238Z,50.43
2023-03-08T03:26:40.135Z,50.50
2023-03-08T03:29:09.704Z,50.67
2023-03-08T03:31:41.339Z,50.70
2023-03-08T03:34:10.445Z,50.66
2023-03-08T03:36:40.885Z,50.81
2023-03-08T03:39:09.437Z,50.73
2023-03-08T03:41:42.174Z,50.85
2023-03-08T03:44:14.136Z,50.72
2023-03-08T03:46:45.267Z,50.77
2023-03-08T03:49:18.266Z,50.97
2023-03-08T03:51:49.429Z,51.18
2023-03-08T03:54:32.774Z,51.04
2023-03-08T03:57:03.692Z,51.37
2023-03-08T03:59:36.720Z,51.43
2023-03-08T04:02:06.395Z,51.42
2023-03-08T04:04:41.104Z,51.41
2023-03-08T04:07:12.809Z,51.40
2023-03-08T04:09:48.774Z,51.44
2023-03-08T04:12:20.348Z,51.48
2023-03-08T04:14:49.004Z,51.56
2023-03-08T04:17:18.804Z,51.75
2023-03-08T04:19:54.344Z,51.73
2023-03-08T04:22:23.601Z,51.71
2023-03-08T04:25:03.619Z,51.71
2023-03-08T04:27:44.592Z,51.89
2023-03-08T04:30:15.128Z,51.96
2023-03-08T04:32:44.239Z,52.03
2023-03-08T04:35:13.242Z,52.11
2023-03-08T04:37:45.484Z,52.18
2023-03-08T04:40:15.389Z,52.29
2023-03-08T04:42:52.953Z,52.45
2023-03-08T04:45:27.924Z,52.41
2023-03-08T04:48:01.265Z,52.41
2023-03-08T04:50:30.694Z,52.46
2023-03-08T04:52:59.574Z,52.42
2023-03-08T04:55:29.947Z,52.50
2023-03-08T04:58:00.158Z,52.65
2023-03-08T05:00:32.104Z,52.74
2023-03-08T05:03:00.607Z,52.88
2023-03-08T05:05:29.908Z,52.85
2023-03-08T05:08:05.401Z,52.86
2023-03-08T05:10:37.265Z,52.82
2023-03-08T05:13:07.776Z,52.86
2023-03-08T05:15:36.578Z,52.89
2023-03-08T05:18:05.164Z,52.74
2023-03-08T05:20:33.616Z,52.90
2023-03-08T05:23:02.054Z,53.05
2023-03-08T05:25:42.163Z,52.96
2023-03-08T05:28:16.307Z,53.03
2023-03-08T05:30:46.962Z,53.02
2023-03-08T05:33:16.245Z,53.16
2023-03-08T05:35:44.633Z,53.16
2023-03-08T05:38:14.074Z,53.36
2023-03-08T05:40:42.802Z,53.49
2023-03-08T05:43:14.130Z,53.50
2023-03-08T05:45:42.713Z,53.71
2023-03-08T05:48:11.660Z,53.47
2023-03-08T05:50:40.134Z,53.46
2023-03-08T05:53:08.698Z,53.80
2023-03-08T05:55:37.580Z,53.75
2023-03-08T05:58:06.655Z,54.09
2023-03-08T06:00:37.253Z,54.07
2023-03-08T06:03:05.737Z,54.03
2023-03-08T06:05:38.463Z,54.31
2023-03-08T06:08:07.188Z,54.08
2023-03-08T06:10:35.586Z,54.36
2023-03-08T06:13:04.547Z,54.32
2023-03-08T06:15:33.134Z,54.34
2023-03-08T06:18:04.356Z,54.36
2023-03-08T06:20:33.233Z,54.41
2023-03-08T06:23:02.545Z,54.52
2023-03-08T06:25:33.026Z,54.42
2023-03-08T06:28:02.094Z,54.48
2023-03-08T06:30:37.373Z,54.53
2023-03-08T06:33:08.046Z,54.58
2023-03-08T06:35:37.476Z,54.74
2023-03-08T06:38:07.067Z,54.81
2023-03-08T06:40:38.556Z,54.88
2023-03-08T06:43:06.961Z,54.96
2023-03-08T06:45:39.483Z,54.84
2023-03-08T06:48:10.409Z,54.66
2023-03-08T06:50:38.828Z,54.81
2023-03-08T06:53:07.947Z,54.73
2023-03-08T06:55:47.170Z,54.79
2023-03-08T06:58:16.018Z,54.66
2023-03-08T07:00:44.318Z,54.73
2023-03-08T07:03:15.383Z,54.78
2023-03-08T07:05:43.869Z,54.72
2023-03-08T07:08:14.658Z,54.62
2023-03-08T07:10:43.531Z,54.59
2023-03-08T07:13:11.834Z,54.56
2023-03-08T07:15:41.825Z,54.42
2023-03-08T07:18:10.213Z,54.41
2023-03-08T07:20:41.599Z,54.39
2023-03-08T07:23:09.993Z,54.40
2023-03-08T07:25:39.718Z,54.50
2023-03-08T07:28:09.016Z,54.50
2023-03-08T07:30:37.406Z,54.73
2023-03-08T07:33:06.064Z,54.66
2023-03-08T07:35:34.489Z,54.63
2023-03-08T07:38:05.351Z,54.60
2023-03-08T07:40:34.130Z,54.50
2023-03-08T07:43:02.675Z,54.47
2023-03-08T07:45:51.389Z,54.41
2023-03-08T07:48:19.770Z,54.65
2023-03-08T07:50:49.298Z,54.72
2023-03-08T07:53:18.964Z,54.51
2023-03-08T07:55:47.840Z,54.60
2023-03-08T07:58:16.142Z,54.59
2023-03-08T08:00:45.234Z,54.64
2023-03-08T08:03:13.644Z,54.67
2023-03-08T08:05:42.915Z,54.77
2023-03-08T08:08:13.947Z,54.66
2023-03-08T08:10:45.615Z,54.76
2023-03-08T08:13:14.010Z,54.93
2023-03-08T08:15:43.546Z,54.88
2023-03-08T08:18:11.988Z,54.97
2023-03-08T08:20:40.381Z,54.99
2023-03-08T08:23:09.600Z,54.87
2023-03-08T08:25:40.392Z,54.92
2023-03-08T08:28:10.730Z,55.11
2023-03-08T08:30:39.061Z,55.07
2023-03-08T08:33:07.903Z,55.05
2023-03-08T08:35:43.048Z,54.99
2023-03-08T08:38:13.896Z,54.99
2023-03-08T08:40:42.244Z,54.83
2023-03-08T08:43:12.823Z,54.90
2023-03-08T08:45:44.527Z,54.86
2023-03-08T08:48:13.917Z,54.77
2023-03-08T08:50:43.438Z,54.73
2023-03-08T08:53:11.883Z,54.71
2023-03-08T08:55:42.183Z,54.76
2023-03-08T08:58:12.647Z,54.79
2023-03-08T09:00:41.646Z,55.09
2023-03-08T09:03:09.922Z,55.23
2023-03-08T09:05:41.116Z,55.41
2023-03-08T09:08:10.138Z,55.66
2023-03-08T09:10:41.291Z,56.01
2023-03-08T09:13:09.854Z,56.20
2023-03-08T09:15:39.657Z,56.55
2023-03-08T09:18:09.319Z,56.65
2023-03-08T09:20:37.674Z,56.83
2023-03-08T09:23:06.711Z,57.22
2023-03-08T09:25:35.257Z,57.63
2023-03-08T09:28:04.490Z,57.88
2023-03-08T09:30:32.944Z,58.32
2023-03-08T09:33:04.549Z,58.57
2023-03-08T09:35:32.937Z,58.96
2023-03-08T09:38:03.102Z,59.34
2023-03-08T09:40:40.396Z,59.53
2023-03-08T09:43:21.075Z,59.63
2023-03-08T09:45:53.530Z,59.52
2023-03-08T09:48:29.661Z,59.91
2023-03-08T09:51:01.097Z,60.19
2023-03-08T09:53:35.479Z,60.57
2023-03-08T09:56:06.463Z,60.57
2023-03-08T09:58:41.757Z,60.80
2023-03-08T10:01:23.235Z,60.96
2023-03-08T10:04:12.380Z,61.18
2023-03-08T10:06:48.460Z,61.24
2023-03-08T10:09:28.427Z,61.61
2023-03-08T10:12:05.689Z,61.71
2023-03-08T10:14:39.701Z,61.77
2023-03-08T10:17:13.748Z,62.01
2023-03-08T10:19:49.272Z,61.96
2023-03-08T10:22:24.624Z,62.09
2023-03-08T10:24:57.362Z,61.97
2023-03-08T10:27:28.636Z,62.33
2023-03-08T10:29:58.720Z,62.41
2023-03-08T10:32:29.242Z,62.52
2023-03-08T10:35:03.619Z,62.46
2023-03-08T10:37:34.629Z,62.64
2023-03-08T10:40:07.076Z,62.54
2023-03-08T10:42:37.351Z,62.75
2023-03-08T10:45:16.273Z,62.93
2023-03-08T10:47:55.997Z,62.96
2023-03-08T10:50:28.086Z,62.91
2023-03-08T10:52:57.517Z,63.18
2023-03-08T10:55:31.379Z,63.11
2023-03-08T10:58:02.549Z,63.38
2023-03-08T11:00:35.680Z,63.36
2023-03-08T11:03:20.084Z,63.65
2023-03-08T11:05:59.289Z,63.94
2023-03-08T11:08:30.860Z,63.89
2023-03-08T11:11:04.621Z,63.79
2023-03-08T11:13:35.452Z,64.14
2023-03-08T11:16:17.607Z,64.56
2023-03-08T11:18:58.861Z,64.55
2023-03-08T11:21:38.219Z,64.67
2023-03-08T11:24:23.624Z,64.91
2023-03-08T11:27:06.090Z,65.50
2023-03-08T11:29:51.180Z,65.82
2023-03-08T11:32:39.933Z,66.03
2023-03-08T11:35:18.151Z,66.30
2023-03-08T11:37:54.832Z,66.89
2023-03-08T11:40:26.262Z,67.26
2023-03-08T11:43:05.971Z,67.09
2023-03-08T11:45:40.900Z,67.71
2023-03-08T11:48:34.200Z,67.71
2023-03-08T11:51:08.354Z,67.80
2023-03-08T11:53:51.503Z,68.12
2023-03-08T11:56:44.058Z,68.33
2023-03-08T11:59:20.733Z,68.57
2023-03-08T12:01:53.699Z,68.84
2023-03-08T12:04:28.157Z,68.72
2023-03-08T12:06:57.433Z,69.07
2023-03-08T12:09:31.723Z,69.19
2023-03-08T12:12:06.785Z,69.38
2023-03-08T12:14:37.353Z,69.55
2023-03-08T12:17:13.967Z,69.72
2023-03-08T12:19:44.616Z,70.00
2023-03-08T12:22:28.419Z,70.18
2023-03-08T12:25:05.786Z,70.17
2023-03-08T12:27:40.975Z,70.24
2023-03-08T12:30:20.997Z,70.62
2023-03-08T12:32:52.606Z,70.43
2023-03-08T12:35:32.963Z,70.59
2023-03-08T12:38:03.880Z,70.67
2023-03-08T12:40:43.680Z,70.61
2023-03-08T12:43:15.601Z,70.68
2023-03-08T12:45:45.252Z,70.72
2023-03-08T12:48:25.324Z,70.56
2023-03-08T12:51:00.968Z,70.51
2023-03-08T12:53:38.264Z,70.34
2023-03-08T12:56:23.811Z,70.28
2023-03-08T12:58:54.702Z,70.18
2023-03-08T13:01:37.329Z,70.36
2023-03-08T13:04:08.119Z,69.89
2023-03-08T13:07:10.867Z,69.63
2023-03-08T13:09:50.836Z,69.16
2023-03-08T13:12:26.652Z,69.02
2023-03-08T13:15:23.184Z,68.66
2023-03-08T13:17:55.563Z,68.16
2023-03-08T13:20:27.300Z,68.09
2023-03-08T13:23:03.776Z,67.70
2023-03-08T13:25:51.754Z,67.42
2023-03-08T13:28:24.258Z,67.00
2023-03-08T13:30:54.292Z,66.45
2023-03-08T13:33:26.158Z,65.79
2023-03-08T13:35:59.387Z,65.80
2023-03-08T13:38:30.884Z,65.61
2023-03-08T13:41:00.952Z,65.20
2023-03-08T13:43:33.297Z,65.08
2023-03-08T13:46:04.188Z,64.71
2023-03-08T13:48:35.483Z,64.38
2023-03-08T13:51:04.409Z,64.34
2023-03-08T13:53:36.180Z,64.11
2023-03-08T13:56:07.099Z,63.90
2023-03-08T13:58:39.594Z,63.50
2023-03-08T14:01:13.326Z,63.51
2023-03-08T14:03:44.022Z,63.32
2023-03-08T14:06:19.703Z,63.39
2023-03-08T14:08:49.540Z,63.17
2023-03-08T14:11:20.809Z,63.11
2023-03-08T14:13:53.464Z,63.01
2023-03-08T14:16:29.683Z,62.94
2023-03-08T14:18:59.080Z,62.89
2023-03-08T14:21:29.471Z,62.55
2023-03-08T14:24:00.187Z,62.74
2023-03-08T14:26:31.922Z,62.51
2023-03-08T14:29:13.520Z,62.89
2023-03-08T14:31:54.731Z,62.72
2023-03-08T14:34:26.220Z,62.60
2023-03-08T14:36:58.578Z,62.96
2023-03-08T14:39:29.980Z,62.92
2023-03-08T14:41:58.603Z,62.77
2023-03-08T14:44:30.389Z,62.59
2023-03-08T14:47:09.187Z,62.66
2023-03-08T14:49:39.241Z,62.33
2023-03-08T14:52:20.681Z,62.27
2023-03-08T14:54:49.430Z,62.35
2023-03-08T14:57:20.418Z,62.17
2023-03-08T14:59:51.168Z,62.30
2023-03-08T15:02:20.413Z,62.13
2023-03-08T15:04:48.776Z,61.95
2023-03-08T15:07:20.740Z,61.68
2023-03-08T15:09:51.421Z,61.70
2023-03-08T15:12:20.153Z,61.56
2023-03-08T15:14:49.891Z,61.72
2023-03-08T15:17:19.110Z,61.61
2023-03-08T15:19:47.423Z,61.86
2023-03-08T15:22:18.821Z,61.66
2023-03-08T15:24:47.257Z,61.50
2023-03-08T15:27:16.382Z,61.34
2023-03-08T15:29:44.736Z,61.27
2023-03-08T15:32:14.436Z,61.44
2023-03-08T15:34:42.819Z,61.66
2023-03-08T15:37:14.748Z,61.36
2023-03-08T15:39:43.349Z,61.04
2023-03-08T15:42:12.787Z,61.48
2023-03-08T15:44:41.488Z,61.05
2023-03-08T15:47:13.108Z,61.04
2023-03-08T15:49:46.327Z,61.19
2023-03-08T15:52:14.767Z,61.17
2023-03-08T15:54:47.190Z,61.19
2023-03-08T15:57:16.107Z,61.22
2023-03-08T15:59:44.484Z,61.05
2023-03-08T16:02:16.077Z,61.12
2023-03-08T16:04:48.195Z,60.69
2023-03-08T16:07:17.975Z,60.92
2023-03-08T16:09:48.080Z,60.92
2023-03-08T16:12:17.064Z,60.82
2023-03-08T16:14:48.557Z,60.57
2023-03-08T16:17:18.904Z,60.61
2023-03-08T16:19:48.616Z,60.72
2023-03-08T16:22:17.451Z,60.47
2023-03-08T16:24:46.195Z,60.52
2023-03-08T16:27:14.613Z,60.44
2023-03-08T16:29:42.964Z,60.47
2023-03-08T16:32:15.570Z,60.59
2023-03-08T16:34:44.057Z,60.48
2023-03-08T16:37:14.147Z,60.52
2023-03-08T16:39:42.860Z,60.62
2023-03-08T16:42:13.073Z,60.42
2023-03-08T16:44:41.864Z,60.77
2023-03-08T16:47:10.370Z,60.45
2023-03-08T16:49:39.508Z,60.72
2023-03-08T16:52:07.910Z,60.73
2023-03-08T16:54:38.605Z,60.54
2023-03-08T16:57:18.536Z,60.58
2023-03-08T16:59:48.555Z,60.80
2023-03-08T17:02:18.892Z,60.79
2023-03-08T17:04:49.540Z,60.88
2023-03-08T17:07:24.630Z,60.78
2023-03-08T17:09:55.744Z,60.85
2023-03-08T17:12:24.584Z,60.86
2023-03-08T17:14:53.894Z,61.03
2023-03-08T17:17:22.786Z,61.07
2023-03-08T17:19:52.161Z,60.99
2023-03-08T17:22:21.400Z,60.95
2023-03-08T17:24:49.723Z,60.91
2023-03-08T17:27:19.963Z,61.07
2023-03-08T17:29:48.262Z,61.42
2023-03-08T17:32:17.237Z,61.18
2023-03-08T17:34:45.646Z,61.55
2023-03-08T17:37:16.121Z,61.38
2023-03-08T17:39:44.435Z,61.52
2023-03-08T17:42:13.007Z,61.58
2023-03-08T17:44:43.082Z,61.77
2023-03-08T17:47:13.803Z,61.57
2023-03-08T17:49:42.655Z,61.92
2023-03-08T17:52:11.524Z,61.65
2023-03-08T17:54:39.810Z,61.95
2023-03-08T17:57:09.012Z,61.61
2023-03-08T17:59:37.307Z,61.94
2023-03-08T18:02:08.374Z,61.75
2023-03-08T18:04:36.673Z,62.00
2023-03-08T18:07:06.410Z,62.00
2023-03-08T18:09:35.156Z,61.71
2023-03-08T18:12:05.786Z,61.88
2023-03-08T18:14:39.832Z,61.99
2023-03-08T18:17:12.754Z,61.82
2023-03-08T18:19:41.961Z,61.87
2023-03-08T18:22:10.677Z,61.94
2023-03-08T18:24:39.880Z,62.08
2023-03-08T18:27:08.686Z,62.00
2023-03-08T18:29:37.885Z,62.06
2023-03-08T18:32:07.163Z,61.98
2023-03-08T18:34:37.895Z,62.03
2023-03-08T18:37:07.030Z,61.96
2023-03-08T18:39:35.426Z,61.95
2023-03-08T18:42:04.392Z,61.74
2023-03-08T18:44:32.824Z,62.03
2023-03-08T18:47:01.774Z,61.75
2023-03-08T18:49:30.135Z,62.34
2023-03-08T18:52:00.839Z,62.15
2023-03-08T18:54:29.210Z,62.43
2023-03-08T18:56:59.261Z,62.57
2023-03-08T18:59:28.896Z,62.58
2023-03-08T19:01:58.141Z,63.05
2023-03-08T19:04:26.639Z,63.13
2023-03-08T19:06:56.308Z,63.67
2023-03-08T19:09:26.450Z,63.60
2023-03-08T19:11:54.824Z,64.08
2023-03-08T19:14:24.526Z,64.24
2023-03-08T19:16:52.903Z,64.70
2023-03-08T19:19:22.461Z,64.64
2023-03-08T19:21:51.041Z,65.03
2023-03-08T19:24:21.642Z,64.62
2023-03-08T19:26:53.197Z,64.99
2023-03-08T19:29:24.477Z,65.07
2023-03-08T19:31:54.785Z,64.70
2023-03-08T19:34:25.698Z,64.80
2023-03-08T19:36:55.517Z,64.80
2023-03-08T19:39:26.617Z,64.71
2023-03-08T19:41:59.746Z,64.34
2023-03-08T19:44:28.674Z,64.26
2023-03-08T19:46:58.037Z,64.33
2023-03-08T19:49:29.501Z,63.81
2023-03-08T19:52:00.601Z,63.74
2023-03-08T19:54:30.125Z,63.53
2023-03-08T19:57:01.260Z,63.59
2023-03-08T19:59:29.703Z,63.20
2023-03-08T20:01:59.457Z,63.33
2023-03-08T20:04:29.276Z,63.29
2023-03-08T20:07:01.044Z,62.90
2023-03-08T20:09:29.910Z,62.72
2023-03-08T20:11:59.116Z,62.96
2023-03-08T20:14:29.870Z,62.45
2023-03-08T20:16:59.151Z,62.69
2023-03-08T20:19:30.384Z,62.42
2023-03-08T20:21:58.751Z,62.44
2023-03-08T20:24:28.263Z,62.65
2023-03-08T20:26:57.022Z,62.65
2023-03-08T20:29:25.716Z,62.69
2023-03-08T20:31:59.154Z,62.68
2023-03-08T20:34:27.741Z,62.65
2023-03-08T20:36:56.730Z,62.89
2023-03-08T20:39:25.526Z,62.80
2023-03-08T20:41:53.910Z,63.33
2023-03-08T20:44:23.704Z,63.44
2023-03-08T20:46:52.595Z,64.10
2023-03-08T20:49:22.276Z,64.50
2023-03-08T20:51:51.386Z,64.65
2023-03-08T20:54:20.210Z,65.48
2023-03-08T20:56:48.968Z,65.64
2023-03-08T20:59:20.310Z,66.17
2023-03-08T21:01:49.840Z,66.28
2023-03-08T21:04:19.838Z,67.15
2023-03-08T21:06:49.566Z,67.65
2023-03-08T21:09:18.287Z,67.90
2023-03-08T21:11:46.590Z,67.85
2023-03-08T21:14:17.956Z,68.50
2023-03-08T21:16:47.495Z,68.70
2023-03-08T21:19:19.574Z,68.84
2023-03-08T21:21:51.601Z,69.25
2023-03-08T21:24:22.752Z,69.49
2023-03-08T21:26:52.424Z,69.95
2023-03-08T21:29:22.122Z,70.05
2023-03-08T21:31:53.723Z,70.56
2023-03-08T21:34:22.388Z,70.90
2023-03-08T21:36:52.491Z,71.00
2023-03-08T21:39:20.825Z,70.84
2023-03-08T21:41:50.964Z,71.01
2023-03-08T21:44:21.087Z,71.23
2023-03-08T21:46:52.001Z,71.65
2023-03-08T21:49:23.660Z,71.52
2023-03-08T21:51:55.836Z,71.47
2023-03-08T21:54:26.645Z,71.56
2023-03-08T21:56:55.599Z,71.76
2023-03-08T21:59:27.394Z,72.23
2023-03-08T22:01:59.340Z,72.17
2023-03-08T22:04:29.211Z,72.18
2023-03-08T22:06:59.331Z,72.32
2023-03-08T22:09:29.150Z,72.43
2023-03-08T22:11:59.245Z,72.66
2023-03-08T22:14:28.532Z,72.69
2023-03-08T22:16:57.916Z,72.92
2023-03-08T22:19:26.344Z,73.06
2023-03-08T22:21:55.269Z,72.98
2023-03-08T22:24:25.196Z,73.27
2023-03-08T22:26:54.389Z,73.18
2023-03-08T22:29:22.676Z,73.25
2023-03-08T22:31:52.001Z,73.25
2023-03-08T22:34:20.451Z,73.14
2023-03-08T22:36:49.095Z,73.44
2023-03-08T22:39:18.945Z,73.54
2023-03-08T22:41:48.599Z,73.51
2023-03-08T22:44:17.893Z,73.50
2023-03-08T22:46:46.670Z,73.44
2023-03-08T22:49:17.098Z,73.47
2023-03-08T22:51:45.637Z,73.67
2023-03-08T22:54:17.062Z,73.89
2023-03-08T22:56:45.600Z,73.98
2023-03-08T22:59:16.371Z,74.30
2023-03-08T23:01:44.762Z,74.15
2023-03-08T23:04:14.638Z,74.37
2023-03-08T23:06:42.970Z,74.41
2023-03-08T23:09:13.158Z,74.58
2023-03-08T23:11:42.797Z,74.47
2023-03-08T23:14:12.771Z,74.46
2023-03-08T23:16:44.889Z,74.65
2023-03-08T23:19:15.426Z,74.56
2023-03-08T23:21:45.609Z,74.50
2023-03-08T23:24:14.605Z,74.35
2023-03-08T23:26:45.870Z,74.50
2023-03-08T23:29:15.371Z,74.64
2023-03-08T23:31:47.918Z,74.27
2023-03-08T23:34:16.279Z,74.65
2023-03-08T23:36:45.490Z,74.45
2023-03-08T23:39:13.838Z,74.71
2023-03-08T23:41:43.285Z,74.48
2023-03-08T23:44:13.012Z,74.49
2023-03-08T23:46:46.563Z,74.35
2023-03-08T23:49:17.750Z,74.56
2023-03-08T23:51:46.715Z,74.55
2023-03-08T23:54:16.310Z,74.36
2023-03-08T23:56:45.498Z,74.23
2023-03-08T23:59:18.217Z,74.50
